Muş Airport

LTCK · 穆什省, 土耳其

使用的METAR站距离机场103 km。
罗盘
风向 的 风向 030° Muş Airport 11L/29R
风: 4 kt, 2 beaufort


4 kt
改变
0 ft 1.000 2.000 3.000 4.000 5.000
CAVOK
METAR LTCJ 020020Z 03004KT CAVOK M00/M01 Q1019 NOSIG RMK RWY20 01004KT 5CI180

METAR Muş Airport - LTCK/MSR

Muş Airport是,土耳其中的中型机场。 该机场位于纬度38,74780和经度41,66120。 该机场有2条跑道: 11L/29R 和 11R/29L. 本场的ICAO机场代码为LTCK。 该机场的IATA代码为MSR。 机场在Ankara FIR中。

该航空气象观测是针对Batman Airport在2024年3月2日 03:20, 当地时间进行的。

机场观察

风向为030°,速度为4 kt。

天气为CAVOK。这意味着在5.000 ft或MSA(最低安全高度)以下(以较高者为准)以下没有云。这也意味着没有观测到积雨云或高耸的积云,可见度为10 km 或者更多或更高。此外,不会有雾,降雨或其他重要天气。

温度为0 °C,阵风为-4 °C。 露点为-1 °C,相对湿度为93%。 海平面上的气压为1019 hPa (QNH)。

白天

今天,太阳从06:43升起,在18:07降落。 这适用于Muş Airport,世界夏令时可能有所不同。 当地时间与世界标准时间之间的时差为+3 小时。 当前,没有夏令时有效。

公司介绍

我们没有关于这个机场的公司信息。

体会

到Vliegles.nl去找飞行课程,跳伞和其他飞行体验。 浏览页面,了解Muş Airport附近所有可用的活动。 你也可以使用搜索功能来寻找你所在地附近的特定飞行课程、跳伞或其他飞行体验。

跑道

Id 标题 侧风 逆风 侧风 %
11L/29R 116°-296° 4 kt 100 %
11R/29L 116°-296° 4 kt 100 %

逆风成分最大的方向会被突出显示,并用于横风计算。 这并不一定意味着这个方向在使用。

温度 & 天气

温度 0 °C
露点 -1 °C
相对湿度 93%
风寒 -4 °C
Kp-index 0 (0-9)

评论

RWY20 01004KT 5CI180

白天

日出
06:45 (3:07)
中午
12:27
日落
18:10

小工具

你想在你的网站上有一个关于Muş Airport的当前航空天气(METAR)的小部件吗?

显示HTML代码
?>